Time;durP1;ratioP1;P1;durP2;ratioP2;P2;SDS_P1;SDS_P2;PMS_P1;PMS_P2;Temp;Humidity;BMP_temperature;BMP_pressure;BME280_temperature;BME280_humidity;BME280_pressure;Samples;Min_cycle;Max_cycle;Signal;HPM_P1;HPM_P2
2022/07/29 00:00:12;;;;;;;3.05;2.40;;;;;;;22.62;57.91;100347.94;5589059;31;32755;-68
2022/07/29 00:03:15;;;;;;;3.33;2.37;;;;;;;22.59;56.02;100346.56;5590573;31;34186;-69
2022/07/29 00:06:18;;;;;;;3.17;2.50;;;;;;;22.59;56.04;100343.88;5589712;31;34285;-69
2022/07/29 00:09:21;;;;;;;5.10;2.40;;;;;;;22.63;56.58;100349.59;5590351;31;35012;-69
2022/07/29 00:12:25;;;;;;;4.50;2.30;;;;;;;22.59;56.69;100351.16;5590266;31;34200;-69
2022/07/29 00:15:28;;;;;;;5.05;2.35;;;;;;;22.60;56.70;100342.00;5590361;31;34334;-68
2022/07/29 00:18:31;;;;;;;7.15;2.53;;;;;;;22.60;56.38;100342.81;5590343;31;34248;-68
2022/07/29 00:21:34;;;;;;;7.65;2.67;;;;;;;22.65;56.30;100344.78;5590113;31;34188;-69
2022/07/29 00:24:37;;;;;;;4.80;2.60;;;;;;;22.68;56.35;100347.78;5590288;31;34234;-69
2022/07/29 00:27:40;;;;;;;6.32;2.42;;;;;;;22.59;56.44;100343.03;5590153;31;34559;-67
2022/07/29 00:30:43;;;;;;;2.75;2.28;;;;;;;22.67;56.01;100340.75;5590196;31;34176;-68
2022/07/29 00:33:45;;;;;;;6.95;2.67;;;;;;;22.72;55.06;100345.44;5589971;31;35390;-69
2022/07/29 00:36:48;;;;;;;3.47;2.33;;;;;;;22.77;55.08;100350.91;5590162;31;34238;-69
2022/07/29 00:39:51;;;;;;;3.75;2.30;;;;;;;22.82;54.98;100351.00;5590000;31;34902;-68
2022/07/29 00:42:53;;;;;;;6.37;2.30;;;;;;;22.68;55.42;100347.78;5589893;31;34266;-68
2022/07/29 00:45:56;;;;;;;3.62;2.60;;;;;;;22.62;56.51;100351.47;5590062;31;34917;-69
2022/07/29 00:48:59;;;;;;;7.12;2.40;;;;;;;22.54;56.77;100347.31;5590359;31;34934;-68
2022/07/29 00:52:05;;;;;;;3.72;2.58;;;;;;;22.54;56.19;100341.91;5590011;31;34561;-69
2022/07/29 00:55:11;;;;;;;3.08;2.37;;;;;;;22.52;57.02;100345.91;5590043;31;34337;-69
2022/07/29 00:58:14;;;;;;;5.47;2.78;;;;;;;22.50;56.72;100342.66;5589176;31;34873;-69
2022/07/29 01:01:17;;;;;;;3.47;2.50;;;;;;;22.44;57.04;100341.75;5589995;31;34916;-69
2022/07/29 01:04:21;;;;;;;8.48;2.58;;;;;;;22.39;56.78;100343.53;5589588;31;34248;-69
2022/07/29 01:07:25;;;;;;;5.25;2.58;;;;;;;22.32;57.15;100348.28;5588854;31;34289;-69
2022/07/29 01:10:29;;;;;;;3.53;2.25;;;;;;;22.28;57.34;100339.84;5588854;31;34650;-69
2022/07/29 01:13:33;;;;;;;3.72;2.20;;;;;;;22.22;57.49;100335.41;5589805;31;34773;-69
2022/07/29 01:16:45;;;;;;;5.68;2.75;;;;;;;22.24;57.69;100333.31;5589755;31;34590;-69
2022/07/29 01:20:07;;;;;;;4.53;2.40;;;;;;;22.25;57.54;100331.44;5589759;31;34282;-69
2022/07/29 01:23:31;;;;;;;3.80;2.55;;;;;;;22.31;58.01;100335.84;5589846;31;34102;-69
2022/07/29 01:26:54;;;;;;;4.85;2.33;;;;;;;22.25;58.43;100336.84;5589662;31;34928;-68
2022/07/29 01:29:59;;;;;;;3.05;2.25;;;;;;;22.19;58.40;100333.22;5589744;31;34903;-69
2022/07/29 01:33:07;;;;;;;5.05;2.53;;;;;;;22.17;57.97;100334.53;5589582;31;34321;-69
2022/07/29 01:36:18;;;;;;;3.50;2.50;;;;;;;22.13;58.99;100325.25;5589614;31;34135;-69
2022/07/29 01:39:29;;;;;;;5.55;2.30;;;;;;;22.03;58.88;100324.03;5589605;31;34113;-69
2022/07/29 01:42:38;;;;;;;6.05;3.03;;;;;;;21.98;58.87;100323.94;5589551;31;34876;-69
2022/07/29 01:45:44;;;;;;;3.15;2.50;;;;;;;22.02;59.16;100333.22;5588840;31;35641;-69
2022/07/29 01:48:53;;;;;;;5.47;2.87;;;;;;;22.05;60.11;100331.91;5589848;31;34285;-69
2022/07/29 01:52:05;;;;;;;3.97;2.37;;;;;;;21.98;60.09;100326.62;5589705;31;34095;-68
2022/07/29 01:55:13;;;;;;;5.85;2.60;;;;;;;22.06;60.57;100336.25;5589416;31;34240;-68
2022/07/29 01:58:18;;;;;;;6.62;2.67;;;;;;;21.99;60.94;100331.00;5589434;31;35069;-68
2022/07/29 02:01:24;;;;;;;7.05;2.60;;;;;;;22.06;60.82;100328.16;5589369;31;35476;-69
2022/07/29 02:04:29;;;;;;;4.15;2.60;;;;;;;22.06;61.40;100326.25;5589360;31;34278;-69
2022/07/29 02:07:33;;;;;;;6.28;2.85;;;;;;;22.02;61.65;100327.00;5589346;31;34519;-69
2022/07/29 02:10:39;;;;;;;5.60;2.75;;;;;;;21.96;62.27;100325.25;5589268;31;34246;-69
2022/07/29 02:13:44;;;;;;;4.20;2.70;;;;;;;21.88;62.52;100325.63;5589451;31;34896;-69
2022/07/29 02:16:50;;;;;;;4.00;2.72;;;;;;;21.82;62.61;100330.12;5588440;31;33418;-69
2022/07/29 02:19:57;;;;;;;6.32;2.92;;;;;;;21.88;62.99;100336.44;5589107;31;34163;-69
2022/07/29 02:23:04;;;;;;;11.77;3.30;;;;;;;21.86;62.91;100327.75;5588136;31;34855;-69
2022/07/29 02:26:08;;;;;;;3.12;2.58;;;;;;;21.86;63.96;100323.16;5589126;31;34958;-68
2022/07/29 02:29:15;;;;;;;3.50;2.60;;;;;;;21.83;63.12;100320.12;5589096;31;35507;-69
2022/07/29 02:32:19;;;;;;;3.70;2.50;;;;;;;21.89;62.67;100319.97;5588453;31;35525;-68
2022/07/29 02:35:22;;;;;;;4.53;2.78;;;;;;;21.85;62.10;100323.41;5588830;31;34151;-68
2022/07/29 02:41:57;;;;;;;3.40;2.67;;;;;;;21.76;62.02;100317.59;5588896;31;34818;-68
2022/07/29 02:45:01;;;;;;;3.22;2.70;;;;;;;21.86;63.22;100315.06;5588791;31;35427;-69
2022/07/29 02:48:09;;;;;;;4.62;2.50;;;;;;;21.70;62.57;100318.53;5589100;31;34286;-69
2022/07/29 02:51:19;;;;;;;4.37;2.67;;;;;;;21.52;62.79;100311.47;5588602;31;33998;-68
2022/07/29 02:54:47;;;;;;;3.28;2.67;;;;;;;21.41;63.20;100316.91;5588646;31;34676;-69
2022/07/29 02:57:59;;;;;;;5.37;2.58;;;;;;;21.39;63.25;100311.75;5588863;31;34360;-69
2022/07/29 03:01:14;;;;;;;3.55;2.45;;;;;;;21.31;63.53;100319.38;5588855;31;34928;-69
2022/07/29 03:04:25;;;;;;;4.80;2.70;;;;;;;21.24;64.00;100312.28;5588405;31;34185;-69
2022/07/29 03:07:29;;;;;;;4.00;2.50;;;;;;;21.22;64.74;100321.66;5588379;31;33706;-69
2022/07/29 03:10:33;;;;;;;3.45;2.47;;;;;;;21.24;64.40;100322.25;5588689;31;34109;-69
2022/07/29 03:13:37;;;;;;;5.97;2.65;;;;;;;21.17;64.71;100316.16;5588206;31;34264;-69
2022/07/29 03:16:40;;;;;;;5.55;2.87;;;;;;;21.14;65.62;100317.47;5587576;31;34142;-68
2022/07/29 03:19:43;;;;;;;4.05;2.72;;;;;;;21.27;65.08;100320.94;5588156;31;34156;-69
2022/07/29 03:22:48;;;;;;;5.22;3.00;;;;;;;21.34;64.74;100322.44;5588418;31;34270;-69
2022/07/29 03:25:52;;;;;;;3.97;2.83;;;;;;;21.33;65.07;100322.69;5588414;31;34663;-69
2022/07/29 03:28:55;;;;;;;4.45;2.72;;;;;;;21.33;65.05;100322.69;5587935;31;34461;-69
2022/07/29 03:31:58;;;;;;;5.80;2.80;;;;;;;21.28;65.08;100331.50;5587881;31;35534;-69
2022/07/29 03:35:01;;;;;;;5.53;2.90;;;;;;;21.22;65.63;100325.16;5590512;31;34172;-70
2022/07/29 03:38:04;;;;;;;5.35;3.05;;;;;;;21.24;65.82;100322.25;5590792;31;34219;-69
2022/07/29 03:41:10;;;;;;;4.45;3.00;;;;;;;21.25;65.93;100326.59;5590957;31;34264;-70
2022/07/29 03:44:14;;;;;;;6.05;3.17;;;;;;;21.23;66.28;100316.03;5590581;31;34192;-69
2022/07/29 03:47:22;;;;;;;6.50;2.83;;;;;;;21.24;66.51;100316.84;5577076;31;34777;-70
2022/07/29 03:50:45;;;;;;;3.03;2.72;;;;;;;21.20;66.69;100324.56;5590560;31;34160;-70
2022/07/29 03:53:48;;;;;;;4.78;2.75;;;;;;;21.16;67.09;100319.91;5590348;31;34911;-70
2022/07/29 03:56:53;;;;;;;3.65;2.70;;;;;;;21.12;68.16;100333.03;5589696;31;32733;-69
2022/07/29 03:59:56;;;;;;;4.37;2.90;;;;;;;21.08;68.61;100333.72;5589721;31;34833;-70
2022/07/29 04:02:59;;;;;;;4.32;2.97;;;;;;;21.05;68.01;100335.03;5590409;31;34861;-69
2022/07/29 04:06:07;;;;;;;6.57;3.20;;;;;;;21.03;68.97;100339.03;5576841;31;33428;-70
2022/07/29 04:09:10;;;;;;;4.30;2.90;;;;;;;21.05;68.84;100334.22;5590352;31;34335;-70
2022/07/29 04:12:13;;;;;;;3.35;2.50;;;;;;;21.09;68.45;100329.97;5589688;31;32794;-71
2022/07/29 04:15:16;;;;;;;5.50;3.00;;;;;;;21.12;68.22;100343.00;5590174;31;35411;-69
2022/07/29 04:18:18;;;;;;;8.25;2.70;;;;;;;21.15;68.13;100335.28;5590126;31;34165;-70
2022/07/29 04:21:21;;;;;;;2.97;2.67;;;;;;;21.08;69.79;100339.94;5590292;31;34173;-70
2022/07/29 04:24:24;;;;;;;6.55;3.00;;;;;;;21.09;68.87;100348.87;5590103;31;34965;-69
2022/07/29 04:27:27;;;;;;;5.47;3.10;;;;;;;21.14;70.22;100340.91;5590481;31;34153;-69
2022/07/29 04:30:33;;;;;;;5.22;3.25;;;;;;;21.15;68.66;100338.00;5590111;31;34468;-69
2022/07/29 04:33:35;;;;;;;5.12;3.00;;;;;;;21.17;69.27;100340.44;5589864;31;34227;-70
2022/07/29 04:36:38;;;;;;;5.45;3.25;;;;;;;21.21;68.79;100339.72;5590023;31;34294;-70
2022/07/29 04:39:40;;;;;;;8.30;3.25;;;;;;;21.21;69.34;100338.87;5590014;31;35372;-70
2022/07/29 04:42:43;;;;;;;5.30;3.12;;;;;;;21.28;68.26;100339.59;5590313;31;34604;-70
2022/07/29 04:45:49;;;;;;;3.75;2.90;;;;;;;21.29;68.32;100343.94;5589482;31;34838;-70
2022/07/29 04:48:52;;;;;;;6.10;2.97;;;;;;;21.40;68.81;100336.84;5589983;31;34884;-68
2022/07/29 04:51:54;;;;;;;3.87;3.00;;;;;;;21.48;67.63;100345.41;5589956;31;34493;-69
2022/07/29 04:54:57;;;;;;;4.40;3.22;;;;;;;21.46;67.35;100347.50;5589686;31;34318;-69
2022/07/29 04:58:00;;;;;;;8.32;2.70;;;;;;;21.52;67.27;100343.03;5576248;31;32617;-70
2022/07/29 05:01:04;;;;;;;5.22;3.30;;;;;;;21.69;65.99;100344.72;5589730;31;34038;-69
2022/07/29 05:04:07;;;;;;;6.62;3.40;;;;;;;21.65;66.09;100345.44;5590097;31;34726;-70
2022/07/29 05:07:09;;;;;;;6.62;3.03;;;;;;;21.83;65.94;100349.84;5590168;31;35015;-70
2022/07/29 05:10:12;;;;;;;6.78;3.37;;;;;;;21.98;65.48;100348.25;5576244;31;33951;-69
2022/07/29 05:13:15;;;;;;;5.00;2.97;;;;;;;22.10;64.55;100353.59;5588703;31;34499;-69
2022/07/29 05:16:18;;;;;;;2.95;2.60;;;;;;;22.10;64.43;100354.44;5589513;31;34885;-69
2022/07/29 05:19:21;;;;;;;4.15;2.90;;;;;;;22.21;64.11;100344.63;5589836;31;34146;-69
2022/07/29 05:22:23;;;;;;;6.05;3.10;;;;;;;22.28;63.96;100349.84;5589610;31;34728;-70
2022/07/29 05:25:28;;;;;;;4.75;3.08;;;;;;;22.41;63.67;100342.22;5589252;31;35492;-69
2022/07/29 05:28:45;;;;;;;6.07;3.20;;;;;;;22.72;63.49;100348.97;5589471;31;34221;-68
2022/07/29 05:31:48;;;;;;;5.12;2.80;;;;;;;22.65;62.38;100344.78;5589426;31;34706;-69
2022/07/29 05:34:51;;;;;;;6.60;3.15;;;;;;;22.88;62.88;100356.25;5589209;31;34229;-69
2022/07/29 05:37:54;;;;;;;3.70;3.03;;;;;;;23.11;62.63;100349.78;5588706;31;35450;-69
2022/07/29 05:40:58;;;;;;;5.55;2.97;;;;;;;23.03;61.36;100344.00;5589047;31;34242;-69
2022/07/29 05:44:01;;;;;;;8.32;3.20;;;;;;;22.95;60.64;100359.56;5589178;31;34231;-69
2022/07/29 05:47:06;;;;;;;6.97;3.00;;;;;;;23.03;61.14;100352.09;5589407;31;34970;-70
2022/07/29 05:50:09;;;;;;;4.90;3.22;;;;;;;23.14;61.12;100354.69;5588886;31;34313;-68
2022/07/29 05:53:12;;;;;;;3.65;3.12;;;;;;;23.23;62.88;100355.91;5588891;31;34349;-68
2022/07/29 05:56:22;;;;;;;;;;;;;;;23.46;62.57;100349.44;5588063;31;34238;-69
2022/07/29 05:59:24;;;;;;;5.55;3.10;;;;;;;23.42;61.54;100355.59;5589404;31;35107;-67
2022/07/29 06:02:32;;;;;;;5.37;3.28;;;;;;;23.34;61.66;100359.53;5589261;31;34199;-68
2022/07/29 06:05:35;;;;;;;5.95;3.20;;;;;;;23.48;61.03;100354.63;5589442;31;34949;-68
2022/07/29 06:08:38;;;;;;;4.37;3.08;;;;;;;23.78;60.37;100357.62;5588174;31;34170;-68
2022/07/29 06:11:41;;;;;;;8.23;3.45;;;;;;;23.75;59.79;100353.56;5588876;31;34179;-67
2022/07/29 06:14:43;;;;;;;6.03;3.28;;;;;;;23.53;60.59;100360.09;5588243;31;33456;-68
2022/07/29 06:17:47;;;;;;;4.15;2.75;;;;;;;23.68;60.55;100362.94;5588174;31;34457;-69
2022/07/29 06:21:08;;;;;;;6.00;3.10;;;;;;;23.89;57.54;100359.41;5588418;31;34917;-69
2022/07/29 06:24:12;;;;;;;4.47;3.00;;;;;;;24.22;55.44;100366.50;5588282;31;33826;-68
2022/07/29 06:27:16;;;;;;;5.87;2.80;;;;;;;24.23;54.43;100363.56;5588682;31;34221;-69
2022/07/29 06:30:19;;;;;;;17.12;3.15;;;;;;;24.08;55.52;100362.56;5587568;31;34219;-69
2022/07/29 06:33:21;;;;;;;7.95;3.15;;;;;;;24.37;56.28;100366.66;5574220;31;32916;-69
2022/07/29 06:36:24;;;;;;;6.85;2.95;;;;;;;24.52;54.35;100355.91;5587654;31;33106;-69
2022/07/29 06:39:27;;;;;;;10.52;3.17;;;;;;;24.55;54.61;100368.12;5574749;31;34160;-68
2022/07/29 06:42:30;;;;;;;5.43;2.90;;;;;;;24.76;53.97;100367.22;5588428;31;34733;-68
2022/07/29 06:45:36;;;;;;;5.00;2.83;;;;;;;25.04;52.01;100375.00;5587929;31;35430;-68
2022/07/29 06:48:40;;;;;;;5.60;2.65;;;;;;;25.15;51.19;100372.34;5588439;31;34099;-68
2022/07/29 06:51:42;;;;;;;4.72;2.65;;;;;;;25.38;51.16;100374.62;5588077;31;34178;-68
2022/07/29 06:54:47;;;;;;;7.95;2.85;;;;;;;25.64;49.89;100381.03;5588115;31;35477;-69
2022/07/29 06:57:51;;;;;;;7.28;2.75;;;;;;;25.88;50.30;100379.47;5588404;31;34974;-68
2022/07/29 07:00:54;;;;;;;8.70;3.20;;;;;;;26.08;48.54;100370.53;5587746;31;33572;-67
2022/07/29 07:03:58;;;;;;;6.65;3.17;;;;;;;25.93;48.61;100376.75;5588072;31;34176;-68
2022/07/29 07:07:01;;;;;;;6.05;2.80;;;;;;;26.25;47.53;100365.66;5588050;31;34495;-68
2022/07/29 07:10:04;;;;;;;10.73;2.97;;;;;;;26.57;46.57;100371.66;5589933;31;34075;-68
2022/07/29 07:13:07;;;;;;;6.72;2.78;;;;;;;26.74;46.51;100377.62;5589823;31;32498;-68
2022/07/29 07:16:09;;;;;;;5.05;2.75;;;;;;;27.00;45.89;100375.72;5589683;31;32866;-68
2022/07/29 07:19:13;;;;;;;6.37;3.03;;;;;;;27.56;44.52;100367.34;5590232;31;34051;-66
2022/07/29 07:22:16;;;;;;;4.12;2.70;;;;;;;27.88;43.74;100366.91;5590125;31;34440;-68
2022/07/29 07:25:19;;;;;;;3.85;2.58;;;;;;;28.18;41.74;100371.34;5590154;31;34226;-67
2022/07/29 07:28:21;;;;;;;5.95;2.60;;;;;;;28.37;42.19;100361.41;5589703;31;32728;-68
2022/07/29 07:31:27;;;;;;;4.05;2.60;;;;;;;29.34;39.94;100359.34;5589844;31;34955;-68
2022/07/29 07:34:29;;;;;;;4.90;2.50;;;;;;;30.23;38.67;100361.09;5588975;31;34237;-69
2022/07/29 07:37:33;;;;;;;6.75;3.90;;;;;;;30.42;37.93;100360.25;5589985;31;35304;-70
2022/07/29 07:40:35;;;;;;;4.85;2.80;;;;;;;30.29;37.54;100350.88;5588947;31;33924;-67
2022/07/29 07:43:39;;;;;;;4.30;2.33;;;;;;;30.35;37.28;100368.03;5590809;31;34157;-67
2022/07/29 07:46:44;;;;;;;6.05;2.83;;;;;;;30.50;37.22;100363.13;5589581;31;34404;-68
2022/07/29 07:49:47;;;;;;;4.22;2.50;;;;;;;31.01;37.04;100352.09;5589841;31;34911;-68
2022/07/29 07:52:52;;;;;;;3.50;2.20;;;;;;;31.13;36.46;100364.50;5590145;31;35123;-69
2022/07/29 07:55:55;;;;;;;7.32;2.65;;;;;;;31.96;34.86;100361.31;5589217;31;34493;-67
2022/07/29 07:59:14;;;;;;;4.25;2.45;;;;;;;31.93;35.79;100367.44;5589417;31;33749;-69
2022/07/29 08:02:17;;;;;;;3.72;2.22;;;;;;;32.10;34.24;100351.12;5588947;31;32570;-68
2022/07/29 08:05:20;;;;;;;13.93;2.95;;;;;;;32.28;34.05;100352.91;5589413;31;34891;-68
2022/07/29 08:08:23;;;;;;;6.25;2.45;;;;;;;31.67;35.92;100349.91;5588767;31;33120;-68
2022/07/29 08:11:26;;;;;;;4.85;2.47;;;;;;;33.38;33.13;100344.72;5590070;31;34391;-68
2022/07/29 08:14:30;;;;;;;3.92;2.30;;;;;;;33.52;32.29;100347.34;5589652;31;34297;-69
2022/07/29 08:17:33;;;;;;;4.18;2.58;;;;;;;34.40;31.14;100350.62;5588588;31;32351;-69
2022/07/29 08:20:38;;;;;;;6.65;2.33;;;;;;;34.62;30.19;100346.81;5589138;31;35383;-69
2022/07/29 08:23:47;;;;;;;3.83;2.10;;;;;;;33.74;30.76;100349.19;5588996;31;33559;-68
2022/07/29 08:27:00;;;;;;;6.40;2.40;;;;;;;33.45;31.64;100347.78;5589310;31;34168;-68
2022/07/29 08:30:04;;;;;;;3.95;2.50;;;;;;;35.12;29.62;100347.78;5589527;31;34829;-68
2022/07/29 08:33:07;;;;;;;4.72;2.35;;;;;;;35.55;28.78;100341.22;5588818;31;32521;-69
2022/07/29 08:36:09;;;;;;;5.95;2.20;;;;;;;36.14;27.65;100353.00;5589092;31;34116;-69
2022/07/29 08:39:12;;;;;;;5.55;2.55;;;;;;;37.14;26.64;100338.72;5589694;31;35503;-70
2022/07/29 08:42:16;;;;;;;4.53;2.05;;;;;;;36.66;26.04;100345.00;5589425;31;34232;-70
2022/07/29 08:45:21;;;;;;;3.45;2.20;;;;;;;36.04;27.54;100348.66;5589763;31;33783;-70
2022/07/29 08:48:24;;;;;;;5.75;2.20;;;;;;;36.36;27.07;100344.31;5589328;31;34157;-69
2022/07/29 08:51:28;;;;;;;3.08;2.17;;;;;;;37.46;26.78;100338.94;5589381;31;34466;-69
2022/07/29 08:54:31;;;;;;;7.60;2.50;;;;;;;38.01;25.58;100343.78;5589245;31;34112;-70
2022/07/29 08:57:35;;;;;;;8.13;2.33;;;;;;;38.10;25.47;100330.59;5589343;31;34983;-70
2022/07/29 09:00:43;;;;;;;7.53;2.30;;;;;;;37.42;25.22;100336.06;5589474;31;35067;-70
2022/07/29 09:03:47;;;;;;;3.58;2.10;;;;;;;37.46;25.84;100328.66;5589568;31;35475;-69
2022/07/29 09:06:54;;;;;;;9.75;2.40;;;;;;;38.62;24.03;100333.22;5588390;31;32835;-69
2022/07/29 09:09:56;;;;;;;6.50;2.40;;;;;;;38.48;24.54;100327.31;5589269;31;34215;-70
2022/07/29 09:12:59;;;;;;;3.67;2.40;;;;;;;39.45;23.04;100332.13;5588611;31;33218;-70
2022/07/29 09:16:02;;;;;;;3.85;2.45;;;;;;;39.23;22.35;100324.41;5589507;31;34828;-70
2022/07/29 09:19:23;;;;;;;4.75;2.42;;;;;;;39.32;23.19;100325.88;5589444;31;34858;-69
2022/07/29 09:22:33;;;;;;;4.75;2.30;;;;;;;38.86;23.69;100324.72;5589466;31;34147;-69
2022/07/29 09:25:41;;;;;;;7.57;2.30;;;;;;;38.08;23.95;100311.56;5589656;31;34675;-69
2022/07/29 09:28:44;;;;;;;3.37;2.10;;;;;;;39.41;22.95;100320.12;5589611;31;34204;-69
2022/07/29 09:31:49;;;;;;;5.53;2.20;;;;;;;40.15;21.79;100316.13;5588657;31;32654;-70
2022/07/29 09:35:19;;;;;;;2.95;2.20;;;;;;;40.13;21.58;100314.91;5589044;31;34191;-71
2022/07/29 09:38:22;;;;;;;3.75;2.22;;;;;;;41.19;20.46;100308.44;5589243;31;34202;-68
2022/07/29 09:41:25;;;;;;;3.47;2.05;;;;;;;40.82;19.88;100299.88;5588944;31;34885;-69
2022/07/29 09:44:43;;;;;;;4.18;2.30;;;;;;;37.79;23.58;100298.03;5575491;31;32789;-70
2022/07/29 09:47:48;;;;;;;4.80;2.22;;;;;;;39.70;22.46;100293.78;5575624;31;33709;-69
2022/07/29 09:50:52;;;;;;;7.95;2.03;;;;;;;41.14;20.80;100294.84;5589213;31;34209;-69
2022/07/29 09:53:54;;;;;;;2.62;1.83;;;;;;;41.55;20.09;100290.25;5589328;31;34050;-70
2022/07/29 09:56:57;;;;;;;4.60;2.00;;;;;;;41.41;18.85;100279.72;5589131;31;34926;-69
2022/07/29 10:00:09;;;;;;;5.03;1.80;;;;;;;40.94;19.76;100277.44;5588611;31;32995;-68
2022/07/29 10:03:15;;;;;;;3.42;1.70;;;;;;;41.18;19.27;100270.66;5588360;31;32905;-69
2022/07/29 10:06:18;;;;;;;2.90;1.77;;;;;;;39.54;21.48;100268.84;5575279;31;33517;-69
2022/07/29 10:09:21;;;;;;;4.30;1.62;;;;;;;38.73;21.64;100266.94;5588977;31;34169;-70
2022/07/29 10:12:24;;;;;;;3.55;1.80;;;;;;;38.76;21.41;100272.56;5589005;31;34197;-70
2022/07/29 10:15:30;;;;;;;5.35;1.77;;;;;;;40.20;20.63;100273.34;5588873;31;34177;-70
2022/07/29 10:18:33;;;;;;;4.82;2.10;;;;;;;41.22;19.52;100271.50;5589004;31;35429;-65
2022/07/29 10:21:39;;;;;;;3.55;1.90;;;;;;;39.16;20.91;100264.03;5588917;31;35398;-70
2022/07/29 10:24:45;;;;;;;5.30;2.15;;;;;;;37.73;22.99;100255.94;5588207;31;34927;-70
2022/07/29 10:27:50;;;;;;;6.35;1.87;;;;;;;37.52;23.32;100265.56;5588850;31;34224;-68
2022/07/29 10:31:01;;;;;;;8.57;1.98;;;;;;;38.93;21.60;100257.53;5589183;31;34871;-70
2022/07/29 10:34:16;;;;;;;3.42;1.75;;;;;;;40.40;20.04;100247.13;5588066;31;32745;-69
2022/07/29 10:37:23;;;;;;;3.63;1.80;;;;;;;41.12;19.01;100249.88;5587285;31;33006;-68
2022/07/29 10:44:09;;;;;;;4.57;1.70;;;;;;;39.89;20.29;100239.00;5587818;31;34215;-69
2022/07/29 10:47:26;;;;;;;6.30;2.50;;;;;;;36.89;23.21;100245.84;5587580;31;32656;-70
2022/07/29 10:50:53;;;;;;;5.05;1.70;;;;;;;35.33;25.61;100245.81;5588591;31;35026;-70
2022/07/29 10:53:59;;;;;;;2.83;2.03;;;;;;;35.50;25.27;100231.88;5588841;31;34866;-70
2022/07/29 10:57:14;;;;;;;2.78;2.00;;;;;;;35.47;25.86;100240.03;5588439;31;34263;-69
2022/07/29 11:00:17;;;;;;;4.70;1.90;;;;;;;34.67;27.33;100222.63;5588357;31;34142;-69
2022/07/29 11:03:47;;;;;;;4.25;2.00;;;;;;;35.24;25.66;100223.81;5587665;31;33410;-68
2022/07/29 11:07:00;;;;;;;5.90;2.40;;;;;;;36.76;23.46;100216.56;5587935;31;34789;-69
2022/07/29 11:10:15;;;;;;;7.35;2.83;;;;;;;37.87;23.33;100222.28;5587480;31;32975;-69
2022/07/29 11:13:42;;;;;;;4.25;2.05;;;;;;;37.81;23.86;100218.19;5588231;31;34885;-68
2022/07/29 11:17:03;;;;;;;2.25;1.70;;;;;;;41.13;19.87;100220.88;5588104;31;34358;-69
2022/07/29 11:20:33;;;;;;;1.50;1.40;;;;;;;42.73;17.48;100215.03;5587469;31;33993;-68
2022/07/29 11:23:39;;;;;;;1.87;1.70;;;;;;;42.99;17.28;100214.81;5587870;31;34786;-68
2022/07/29 11:26:45;;;;;;;3.58;1.60;;;;;;;45.54;15.10;100209.44;5587033;31;32332;-69
2022/07/29 11:29:56;;;;;;;2.37;1.42;;;;;;;46.77;13.81;100208.94;5587971;31;34156;-69
2022/07/29 11:33:00;;;;;;;4.95;1.58;;;;;;;44.98;14.93;100202.78;5587886;31;34129;-69
2022/07/29 11:36:12;;;;;;;2.28;1.60;;;;;;;45.22;14.97;100194.75;5587711;31;34185;-69
2022/07/29 11:39:25;;;;;;;3.62;1.92;;;;;;;45.35;14.66;100193.91;5586967;31;32739;-69
2022/07/29 11:42:40;;;;;;;4.55;1.98;;;;;;;43.93;15.60;100184.88;5587022;31;32581;-70
2022/07/29 11:45:46;;;;;;;;;;;;;;;43.80;15.77;100189.22;5587239;31;32890;-69
2022/07/29 11:48:48;;;;;;;2.08;1.55;;;;;;;41.65;17.56;100184.53;5586991;31;35280;-69
2022/07/29 11:51:55;;;;;;;3.55;1.65;;;;;;;43.69;16.02;100178.00;5587459;31;34252;-69
2022/07/29 11:55:03;;;;;;;3.42;1.70;;;;;;;46.21;14.03;100178.16;5587766;31;33458;-70
2022/07/29 11:58:11;;;;;;;4.12;1.60;;;;;;;45.22;14.82;100175.94;5590724;31;33777;-70
2022/07/29 12:01:17;;;;;;;7.10;1.67;;;;;;;46.11;13.46;100175.41;5589649;31;32690;-69
2022/07/29 12:04:20;;;;;;;6.72;1.40;;;;;;;47.59;12.43;100172.25;5589425;31;34766;-69
2022/07/29 12:07:30;;;;;;;3.28;1.65;;;;;;;47.75;12.54;100170.41;5589609;31;33602;-70
2022/07/29 12:10:37;;;;;;;4.65;1.60;;;;;;;48.14;13.05;100171.81;5589790;31;34261;-69
2022/07/29 12:13:40;;;;;;;2.33;1.85;;;;;;;47.85;12.41;100169.44;5590189;31;34899;-70
2022/07/29 12:16:43;;;;;;;3.60;1.62;;;;;;;46.74;14.32;100167.66;5589460;31;33707;-69
2022/07/29 12:19:46;;;;;;;3.55;1.80;;;;;;;47.13;13.20;100155.97;5576148;31;32943;-69
2022/07/29 12:22:53;;;;;;;2.35;1.50;;;;;;;46.21;13.09;100149.31;5590090;31;34291;-69
2022/07/29 12:25:57;;;;;;;2.72;1.70;;;;;;;45.81;13.39;100146.00;5590254;31;34164;-69
2022/07/29 12:29:01;;;;;;;1.60;1.50;;;;;;;46.04;13.02;100142.66;5590147;31;34285;-69
2022/07/29 12:32:05;;;;;;;4.87;1.70;;;;;;;44.93;13.89;100141.63;5589307;31;34531;-68
2022/07/29 12:35:20;;;;;;;1.92;1.40;;;;;;;45.60;13.35;100136.94;5589961;31;34293;-69
2022/07/29 12:38:23;;;;;;;;;;;;;;;47.85;12.01;100138.50;5589499;31;33670;-70
2022/07/29 12:41:28;;;;;;;4.03;1.60;;;;;;;48.64;11.00;100130.28;5589226;31;35715;-70
2022/07/29 12:44:48;;;;;;;3.90;1.70;;;;;;;49.24;10.72;100121.84;5589740;31;34275;-70
2022/07/29 12:47:52;;;;;;;2.05;1.33;;;;;;;47.02;12.45;100109.16;5589915;31;34321;-70
2022/07/29 12:51:01;;;;;;;2.53;1.75;;;;;;;46.42;12.65;100111.84;5589759;31;34962;-68
2022/07/29 12:54:10;;;;;;;5.90;1.92;;;;;;;47.01;12.32;100103.97;5576424;31;32798;-69
2022/07/29 12:57:13;;;;;;;5.20;1.60;;;;;;;47.77;12.04;100113.75;5590155;31;34226;-68
2022/07/29 13:00:23;;;;;;;1.92;1.40;;;;;;;49.34;11.29;100104.66;5589912;31;34896;-69
2022/07/29 13:03:26;;;;;;;3.00;1.67;;;;;;;50.64;10.07;100108.25;5589089;31;34674;-68
2022/07/29 13:06:41;;;;;;;2.08;1.35;;;;;;;46.40;12.59;100097.41;5589335;31;33720;-70
2022/07/29 13:09:49;;;;;;;4.25;1.52;;;;;;;47.37;12.11;100095.84;5589083;31;32683;-68
2022/07/29 13:13:06;;;;;;;3.45;1.37;;;;;;;46.61;12.67;100091.63;5589714;31;34315;-70
2022/07/29 13:16:09;;;;;;;2.65;1.70;;;;;;;45.91;12.85;100085.44;5589916;31;34580;-69
2022/07/29 13:19:14;;;;;;;3.50;1.40;;;;;;;48.53;10.84;100079.03;5589063;31;33411;-70
2022/07/29 13:22:19;;;;;;;2.00;1.50;;;;;;;50.88;9.77;100076.91;5589595;31;34554;-70
2022/07/29 13:25:30;;;;;;;2.80;2.47;;;;;;;50.78;9.68;100076.78;5589655;31;34165;-69
2022/07/29 13:28:34;;;;;;;3.85;1.77;;;;;;;46.23;12.37;100073.97;5589504;31;34166;-70
2022/07/29 13:31:36;;;;;;;3.35;1.58;;;;;;;46.59;12.40;100065.97;5589430;31;34300;-69
2022/07/29 13:34:40;;;;;;;2.90;1.87;;;;;;;45.66;13.03;100066.00;5589173;31;34200;-70
2022/07/29 13:37:43;;;;;;;2.05;1.45;;;;;;;48.40;11.73;100066.84;5589172;31;34239;-69
2022/07/29 13:40:46;;;;;;;2.70;1.52;;;;;;;48.08;11.47;100070.22;5589309;31;34168;-69
2022/07/29 13:43:48;;;;;;;2.08;1.55;;;;;;;48.31;11.19;100058.13;5589593;31;34810;-69
2022/07/29 13:46:51;;;;;;;3.40;1.80;;;;;;;44.99;13.46;100056.00;5588381;31;33403;-69
2022/07/29 13:49:55;;;;;;;3.83;1.90;;;;;;;41.91;16.36;100043.50;5588955;31;34844;-69
2022/07/29 13:52:57;;;;;;;5.28;1.60;;;;;;;39.55;18.19;100046.31;5588119;31;34505;-69
2022/07/29 13:56:00;;;;;;;4.53;1.60;;;;;;;37.09;21.22;100045.75;5588025;31;34356;-68
2022/07/29 13:59:03;;;;;;;2.80;1.62;;;;;;;39.09;19.79;100033.56;5588867;31;34245;-69
2022/07/29 14:02:06;;;;;;;2.80;1.60;;;;;;;44.43;15.03;100031.84;5587789;31;33268;-69
2022/07/29 14:05:09;;;;;;;3.58;1.77;;;;;;;45.07;14.61;100037.19;5589017;31;34806;-69
2022/07/29 14:08:12;;;;;;;3.72;1.73;;;;;;;45.25;14.25;100029.47;5588944;31;34122;-69
2022/07/29 14:11:15;;;;;;;5.12;2.30;;;;;;;44.04;14.38;100025.53;5587947;31;35329;-69
2022/07/29 14:14:18;;;;;;;5.47;1.87;;;;;;;41.73;16.58;100023.84;5588710;31;34809;-69
2022/07/29 14:17:22;;;;;;;3.97;1.75;;;;;;;39.51;18.46;100019.69;5587383;31;34791;-69
2022/07/29 14:20:25;;;;;;;2.92;1.85;;;;;;;37.27;20.71;100013.06;5587813;31;32724;-68
2022/07/29 14:23:28;;;;;;;1.60;1.50;;;;;;;36.53;22.42;100006.97;5588209;31;33365;-69
2022/07/29 14:26:31;;;;;;;2.25;1.58;;;;;;;40.65;17.55;100005.59;5587569;31;32686;-69
2022/07/29 14:29:35;;;;;;;2.22;1.50;;;;;;;43.26;15.28;100014.31;5588555;31;34602;-69
2022/07/29 14:32:40;;;;;;;4.57;1.77;;;;;;;44.69;14.05;100013.00;5587929;31;35339;-69